• Join FlightAware (Why Join?)
  • Login
  • US Flag 
10:54PM EDT


 

Airport Tracker/Info


-or-


 

Live Flight TrackerFlight Track Log ✈ N146TJ ✈ 29-Jun-2013 ✈ KFOK - KHTO

Flight Track Log - Related Links

Times and Time Zones

All times are in EDT time to prevent confusion due to time zone crossing. See the N146TJ flight status page for this flight to view local times or setup timezone preferences in your user account.

Time Position Orientation Groundspeed Altitude Reporting Facility
EDT Latitude Longitude Course Direction KTS MPH feet Rate Location/Type
07:20PM 40.8500 -72.7000 339° North 142 163 1,500  Level New York TRACON
07:21PM 40.9000 -72.7000 360° North 152 175 2,000 480 Climbing New York TRACON
07:22PM 40.9167 -72.6500 66° East 139 160 2,500 420 Climbing New York TRACON
07:23PM 40.9167 -72.6000 90° East 148 170 2,900 240 Climbing New York TRACON
07:24PM 40.9167 -72.5333 90° East 159 183 3,000  Climbing New York TRACON
07:25PM 40.8816 -72.4701 57° Northeast  Level FlightAware Approximate
07:25PM 40.9167 -72.4833 90° East 173 199 3,000  Level New York TRACON
07:26PM 40.9167 -72.4167 90° East 172 198 3,000  Level New York TRACON
07:27PM 40.9167 -72.3500 90° East 176 203 3,000  Level New York TRACON
07:28PM 40.9167 -72.2833 90° East 173 199 3,000  Level New York TRACON
07:29PM 40.9167 -72.2333 90° East 170 196 3,000 -120 Level New York TRACON
07:30PM 40.9167 -72.1667 90° East 173 199 2,800 -300 Descending New York TRACON
07:31PM 40.9000 -72.1000 108° East 181 208 2,400 -420 Descending New York TRACON
07:32PM 40.8833 -72.0333 108° East 182 209 2,000 -240 Descending New York TRACON
07:33PM 40.9167 -72.0000 37° Northeast 184 212 2,000  Level New York TRACON
07:34PM 40.9500 -72.0167 339° North 159 183 2,000  Level New York TRACON
07:35PM 40.9667 -72.0667 294° West 142 163 2,000  Level New York TRACON
07:36PM 40.9667 -72.1000 270° West 125 144 2,000 -300 Level New York TRACON
07:37PM 40.9667 -72.1500 270° West 112 129 1,500 -540 Descending New York TRACON
07:39PM 40.9646 -72.1789 265° West  Level Estimated
07:46PM 40.9594 -72.2517 265° West  Level Estimated
07:47PM 40.9594 -72.2517 143° Southeast  Level Estimated